Time;durP1;ratioP1;P1;durP2;ratioP2;P2;SDS_P1;SDS_P2;PMS_P1;PMS_P2;Temp;Humidity;BMP_temperature;BMP_pressure;BME280_temperature;BME280_humidity;BME280_pressure;Samples;Min_cycle;Max_cycle;Signal;HPM_P1;HPM_P2
2022/12/03 00:02:20;;;;;;;23.50;12.15;;;;;;;0.01;63.68;100780.98;1746164;82;21061;-39
2022/12/03 00:04:47;;;;;;;21.87;13.15;;;;;;;0.06;63.66;100786.89;1746038;82;21049;-39
2022/12/03 00:07:13;;;;;;;25.85;13.62;;;;;;;0.10;63.71;100786.13;1745993;82;20969;-39
2022/12/03 00:09:41;;;;;;;22.52;12.23;;;;;;;0.14;63.59;100787.77;1746234;82;21513;-39
2022/12/03 00:12:08;;;;;;;27.98;13.32;;;;;;;0.10;63.65;100784.78;1746087;82;21203;-39
2022/12/03 00:14:35;;;;;;;22.05;13.00;;;;;;;0.12;63.87;100783.21;1748780;82;21551;-39
2022/12/03 00:17:02;;;;;;;22.10;13.18;;;;;;;0.13;63.83;100788.30;1763612;80;20933;-38
2022/12/03 00:19:28;;;;;;;20.95;12.50;;;;;;;0.16;63.66;100801.11;1788082;80;21011;-39
2022/12/03 00:21:56;;;;;;;28.00;13.95;;;;;;;0.19;63.77;100796.62;1788183;80;21562;-39
2022/12/03 00:24:22;;;;;;;22.42;12.55;;;;;;;0.25;63.58;100804.09;1788131;80;21493;-39
2022/12/03 00:26:50;;;;;;;26.52;13.13;;;;;;;0.20;63.40;100793.39;1788300;80;20968;-39
2022/12/03 00:29:18;;;;;;;22.27;12.55;;;;;;;0.13;63.47;100792.30;1723550;83;21102;-39
2022/12/03 00:31:44;;;;;;;23.75;12.93;;;;;;;0.11;63.69;100797.59;1735108;82;21064;-39
2022/12/03 00:34:11;;;;;;;23.25;12.28;;;;;;;0.12;63.71;100792.02;1735315;82;20987;-39
2022/12/03 00:36:38;;;;;;;18.98;11.97;;;;;;;0.10;63.79;100794.13;1788172;80;21793;-39
2022/12/03 00:39:05;;;;;;;20.82;11.43;;;;;;;0.07;63.77;100794.64;1723536;83;21348;-39
2022/12/03 00:41:32;;;;;;;21.05;12.18;;;;;;;0.10;63.61;100795.45;1735191;82;21000;-39
2022/12/03 00:43:58;;;;;;;20.72;12.00;;;;;;;0.13;63.67;100798.16;1735095;82;21556;-39
2022/12/03 00:46:26;;;;;;;20.85;11.85;;;;;;;0.11;63.49;100797.59;1788000;80;21020;-39
2022/12/03 00:48:52;;;;;;;20.77;11.63;;;;;;;0.09;63.44;100800.53;1723341;83;21825;-39
2022/12/03 00:51:19;;;;;;;21.23;11.12;;;;;;;0.08;63.57;100796.26;1735194;82;21525;-39
2022/12/03 00:53:45;;;;;;;19.12;11.73;;;;;;;0.12;63.63;100797.34;1735136;82;21093;-39
2022/12/03 00:56:12;;;;;;;20.05;10.68;;;;;;;0.16;63.69;100797.11;1788008;80;20933;-39
2022/12/03 00:58:39;;;;;;;19.90;10.18;;;;;;;0.24;63.35;100793.18;1723508;83;21678;-39
2022/12/03 01:01:05;;;;;;;16.87;9.90;;;;;;;0.25;63.25;100798.23;1735340;82;21577;-39
2022/12/03 01:03:32;;;;;;;17.57;9.63;;;;;;;0.22;63.18;100797.42;1723363;83;20998;-39
2022/12/03 01:05:59;;;;;;;19.25;10.58;;;;;;;0.20;63.05;100798.20;1735186;82;20980;-39
2022/12/03 01:08:26;;;;;;;20.60;9.48;;;;;;;0.22;63.08;100797.95;1788046;80;21009;-39
2022/12/03 01:10:52;;;;;;;14.87;8.80;;;;;;;0.23;62.47;100796.37;1788139;80;21050;-39
2022/12/03 01:13:21;;;;;;;18.23;8.20;;;;;;;0.24;62.42;100801.18;1723351;83;23162;-39
2022/12/03 01:15:47;;;;;;;16.70;8.15;;;;;;;0.27;62.14;100802.80;1735032;82;21589;-39
2022/12/03 01:18:14;;;;;;;15.32;7.60;;;;;;;0.28;62.14;100799.08;1735095;82;20933;-39
2022/12/03 01:20:41;;;;;;;16.50;8.15;;;;;;;0.30;61.76;100799.61;1787879;80;21012;-39
2022/12/03 01:23:07;;;;;;;18.00;7.80;;;;;;;0.25;61.87;100795.57;1787952;80;21017;-39
2022/12/03 01:25:34;;;;;;;12.80;8.28;;;;;;;0.29;61.91;100806.55;1788086;80;21242;-39
2022/12/03 01:28:01;;;;;;;13.65;8.08;;;;;;;0.25;61.82;100807.57;1723413;83;20937;-39
2022/12/03 01:30:28;;;;;;;13.10;7.58;;;;;;;0.26;61.84;100807.85;1735268;82;21080;-39
2022/12/03 01:32:54;;;;;;;13.75;7.45;;;;;;;0.28;62.04;100802.27;1723342;83;21062;-39
2022/12/03 01:35:21;;;;;;;12.07;7.05;;;;;;;0.31;61.71;100807.89;1735257;82;21036;-39
2022/12/03 01:37:48;;;;;;;14.60;7.85;;;;;;;0.23;61.87;100804.38;1735038;82;21266;-39
2022/12/03 01:40:15;;;;;;;11.68;7.12;;;;;;;0.20;62.07;100805.39;1788068;80;21007;-39
2022/12/03 01:42:42;;;;;;;15.65;6.85;;;;;;;0.19;62.08;100814.48;1787958;80;20928;-38
2022/12/03 01:45:14;;;;;;;17.55;7.05;;;;;;;0.13;62.02;100810.96;1661981;83;21092;-39
2022/12/03 01:47:42;;;;;;;12.93;6.75;;;;;;;0.10;61.84;100813.34;1735274;82;21052;-39
2022/12/03 01:50:24;;;;;;;13.08;6.35;;;;;;;0.02;62.29;100809.79;1698783;83;21150;-39
2022/12/03 01:52:51;;;;;;;12.95;6.70;;;;;;;-0.02;62.07;100808.17;1734962;82;21079;-39
2022/12/03 01:55:19;;;;;;;12.78;6.75;;;;;;;-0.05;62.22;100811.36;1735209;82;21032;-39
2022/12/03 01:57:51;;;;;;;11.63;6.42;;;;;;;-0.06;62.18;100807.08;1787940;80;21020;-39
2022/12/03 02:00:23;;;;;;;11.88;6.70;;;;;;;-0.07;62.16;100810.79;1698623;83;21084;-39
2022/12/03 02:02:56;;;;;;;13.58;6.75;;;;;;;-0.09;62.39;100808.89;1735170;82;21194;-38
2022/12/03 02:05:27;;;;;;;11.25;6.62;;;;;;;-0.09;62.54;100814.23;1763594;80;21008;-39
2022/12/03 02:07:54;;;;;;;12.03;6.53;;;;;;;-0.10;62.42;100809.98;1787303;80;21020;-39
2022/12/03 02:10:28;;;;;;;10.50;6.40;;;;;;;-0.12;62.67;100813.41;1787983;80;20993;-39
2022/12/03 02:13:07;;;;;;;14.43;7.53;;;;;;;-0.13;62.00;100813.94;1786967;80;21029;-39
2022/12/03 02:15:35;;;;;;;10.50;6.03;;;;;;;-0.12;62.24;100814.22;1694029;83;21281;-39
2022/12/03 02:18:02;;;;;;;12.35;6.65;;;;;;;-0.13;62.31;100817.94;1726972;83;21024;-38
2022/12/03 02:20:31;;;;;;;11.53;6.33;;;;;;;-0.13;62.32;100817.13;1720678;83;21524;-39
2022/12/03 02:23:16;;;;;;;14.05;6.25;;;;;;;-0.10;62.65;100813.98;1727073;83;21581;-39
2022/12/03 06:05:57;;;;;;;10.10;5.17;;;;;;;-0.48;70.03;100943.59;1756333;80;22755;-38
2022/12/03 06:08:24;;;;;;;11.83;5.97;;;;;;;-0.33;68.94;100949.64;1751612;81;20995;-38
2022/12/03 06:10:50;;;;;;;11.20;5.70;;;;;;;-0.32;68.41;100947.78;1742456;82;21147;-38
2022/12/03 06:13:17;;;;;;;10.23;5.53;;;;;;;-0.35;68.14;100952.28;1742283;82;21024;-38
2022/12/03 06:15:44;;;;;;;9.95;5.90;;;;;;;-0.33;68.11;100951.49;1742448;82;20961;-38
2022/12/03 06:18:11;;;;;;;10.00;5.75;;;;;;;-0.31;67.47;100956.06;1742450;82;20933;-38
2022/12/03 06:20:37;;;;;;;10.45;6.15;;;;;;;-0.31;67.34;100960.05;1742390;82;20925;-38
2022/12/03 06:23:04;;;;;;;13.60;5.90;;;;;;;-0.36;67.13;100954.66;1742436;82;23170;-38
2022/12/03 06:25:31;;;;;;;10.38;6.30;;;;;;;-0.39;67.34;100961.83;1742225;82;21565;-38
2022/12/03 06:27:57;;;;;;;8.43;6.00;;;;;;;-0.39;67.49;100958.64;1742508;82;21676;-38
2022/12/03 06:30:24;;;;;;;15.35;6.65;;;;;;;-0.39;67.43;100960.50;1742495;82;21550;-38
2022/12/03 06:32:51;;;;;;;13.95;7.17;;;;;;;-0.38;67.33;100957.56;1742452;82;21049;-38
2022/12/03 06:35:18;;;;;;;10.10;6.05;;;;;;;-0.35;67.19;100960.28;1742637;82;21115;-38
2022/12/03 06:37:45;;;;;;;11.22;6.58;;;;;;;-0.35;67.06;100968.27;1742301;82;21468;-38
2022/12/03 06:40:13;;;;;;;10.82;6.55;;;;;;;-0.36;67.13;100963.98;1742480;82;21645;-38
2022/12/03 06:42:40;;;;;;;12.90;6.53;;;;;;;-0.36;67.10;100970.13;1742321;82;20961;-38
2022/12/03 06:45:08;;;;;;;12.55;6.40;;;;;;;-0.34;67.18;100977.88;1742436;82;21005;-38
2022/12/03 06:47:34;;;;;;;12.50;7.05;;;;;;;-0.34;67.29;100975.22;1742365;82;21201;-38
2022/12/03 06:50:01;;;;;;;11.97;6.35;;;;;;;-0.35;67.33;100981.59;1742484;82;21008;-39
2022/12/03 06:52:28;;;;;;;11.00;5.90;;;;;;;-0.34;67.14;100979.22;1742507;82;20965;-38
2022/12/03 06:54:54;;;;;;;14.98;6.60;;;;;;;-0.39;67.27;100981.30;1742369;82;21000;-38
2022/12/03 06:57:21;;;;;;;9.90;6.37;;;;;;;-0.38;67.06;100984.73;1742473;82;21009;-38
2022/12/03 06:59:48;;;;;;;13.28;7.03;;;;;;;-0.39;67.33;100984.48;1742588;82;21947;-38
2022/12/03 07:02:14;;;;;;;11.70;6.80;;;;;;;-0.38;67.25;100982.07;1742438;82;20992;-38
2022/12/03 07:04:41;;;;;;;14.53;6.60;;;;;;;-0.31;67.20;100987.52;1742241;82;21279;-38
2022/12/03 07:07:08;;;;;;;13.48;6.85;;;;;;;-0.30;67.09;100981.66;1741771;82;20930;-38
2022/12/03 07:09:34;;;;;;;13.32;6.72;;;;;;;-0.27;67.08;100986.48;1741875;82;21005;-38
2022/12/03 07:12:01;;;;;;;15.40;7.25;;;;;;;-0.29;67.17;100983.27;1741743;82;23134;-38
2022/12/03 07:14:28;;;;;;;12.68;7.67;;;;;;;-0.26;67.29;100986.77;1741665;82;21524;-38
2022/12/03 07:16:55;;;;;;;17.35;7.45;;;;;;;-0.26;67.14;100996.09;1742030;82;21045;-38
2022/12/03 07:19:21;;;;;;;13.70;7.35;;;;;;;-0.26;67.05;100991.57;1741874;82;21049;-38
2022/12/03 07:21:48;;;;;;;13.25;7.62;;;;;;;-0.27;67.17;100994.47;1742006;82;21032;-38
2022/12/03 07:24:15;;;;;;;13.38;6.87;;;;;;;-0.25;67.08;100993.72;1741947;82;21142;-38
2022/12/03 07:26:42;;;;;;;13.72;7.85;;;;;;;-0.27;67.09;100991.81;1741853;82;20972;-38
2022/12/03 07:29:08;;;;;;;10.90;7.42;;;;;;;-0.23;67.04;100991.59;1741948;82;20969;-38
2022/12/03 07:31:35;;;;;;;15.18;7.55;;;;;;;-0.22;67.24;100995.34;1741988;82;20969;-38
2022/12/03 07:34:02;;;;;;;14.60;6.97;;;;;;;-0.18;67.02;100991.66;1741950;82;21174;-38
2022/12/03 07:36:29;;;;;;;12.28;7.30;;;;;;;-0.16;66.97;100992.22;1741955;82;21555;-38
2022/12/03 07:38:55;;;;;;;13.90;7.45;;;;;;;-0.13;67.06;100993.05;1741820;82;20965;-38
2022/12/03 07:41:22;;;;;;;12.82;7.75;;;;;;;-0.11;66.99;100997.09;1741780;82;21028;-38
2022/12/03 07:43:49;;;;;;;12.35;7.05;;;;;;;-0.07;66.71;101006.20;1741956;82;20930;-38
2022/12/03 07:46:16;;;;;;;14.05;7.03;;;;;;;-0.07;66.62;101003.53;1741984;82;21112;-38
2022/12/03 07:48:42;;;;;;;13.83;7.60;;;;;;;-0.10;66.83;101000.56;1742066;82;21087;-38
2022/12/03 07:51:09;;;;;;;17.70;7.58;;;;;;;-0.06;67.00;101004.34;1741819;82;20980;-38
2022/12/03 07:53:36;;;;;;;15.00;8.05;;;;;;;-0.07;67.12;101006.20;1741700;82;20992;-38
2022/12/03 07:56:04;;;;;;;14.47;7.50;;;;;;;-0.06;66.97;101011.00;1741859;82;20994;-38
2022/12/03 07:58:31;;;;;;;17.45;8.25;;;;;;;-0.04;66.98;101011.55;1741998;82;21057;-38
2022/12/03 08:00:57;;;;;;;13.13;8.25;;;;;;;-0.02;67.22;101017.45;1741925;82;21161;-38
2022/12/03 08:03:24;;;;;;;13.35;7.42;;;;;;;-0.02;67.11;101020.11;1741852;82;20933;-38
2022/12/03 08:05:50;;;;;;;14.83;8.23;;;;;;;-0.03;67.24;101025.16;1741971;82;21515;-38
2022/12/03 08:08:17;;;;;;;16.55;8.65;;;;;;;-0.07;67.40;101026.72;1742431;82;21385;-38
2022/12/03 08:10:44;;;;;;;17.60;7.50;;;;;;;-0.12;67.79;101026.65;1742303;82;21004;-38
2022/12/03 08:13:13;;;;;;;19.92;9.40;;;;;;;-0.11;68.09;101034.94;1742405;82;21145;-38
2022/12/03 08:15:40;;;;;;;21.15;9.05;;;;;;;-0.11;68.50;101031.74;1742474;82;20977;-38
2022/12/03 08:18:19;;;;;;;15.40;8.48;;;;;;;-0.08;68.45;101035.76;1742345;82;20994;-38
2022/12/03 08:20:49;;;;;;;13.30;8.18;;;;;;;-0.07;68.69;101034.71;1742347;82;20980;-38
2022/12/03 08:23:21;;;;;;;17.67;8.93;;;;;;;-0.05;68.74;101032.62;1742864;82;21098;-38
2022/12/03 08:25:49;;;;;;;22.07;9.83;;;;;;;0.00;68.78;101037.45;1742423;82;21237;-38
2022/12/03 08:28:19;;;;;;;16.17;8.93;;;;;;;-0.04;69.07;101031.53;1742635;82;21521;-38
2022/12/03 08:31:03;;;;;;;16.93;9.25;;;;;;;-0.03;69.08;101033.16;1742561;82;21570;-38
2022/12/03 08:33:34;;;;;;;18.07;9.65;;;;;;;-0.02;69.30;101037.44;1732945;82;21033;-38
2022/12/03 08:36:13;;;;;;;25.23;10.95;;;;;;;-0.01;69.49;101039.06;1742480;82;21076;-38
2022/12/03 08:38:40;;;;;;;;;;;;;;;-0.05;69.81;101031.28;1745298;82;21526;-39
2022/12/03 08:41:15;;;;;;;22.73;9.90;;;;;;;-0.05;69.93;101038.72;1742327;82;20116;-38
2022/12/03 08:43:42;;;;;;;18.55;10.82;;;;;;;-0.11;70.38;101030.41;1742438;82;20969;-38
2022/12/03 08:46:17;;;;;;;16.87;11.22;;;;;;;-0.06;70.59;101032.33;1742247;82;21657;-38
2022/12/03 08:48:45;;;;;;;20.45;11.35;;;;;;;0.00;70.58;101036.13;1742615;82;21566;-38
2022/12/03 08:51:19;;;;;;;21.45;10.65;;;;;;;0.04;70.67;101027.64;1760639;81;23102;-38
2022/12/03 08:53:49;;;;;;;25.27;11.78;;;;;;;0.08;70.68;101029.56;1760696;81;20959;-38
2022/12/03 08:56:27;;;;;;;21.05;11.40;;;;;;;0.06;70.91;101025.52;1760976;81;20955;-38
2022/12/03 08:59:25;;;;;;;30.92;12.07;;;;;;;0.07;70.90;101025.28;1760066;81;21058;-38
2022/12/03 09:01:52;;;;;;;21.85;11.57;;;;;;;0.09;71.17;101021.04;1733502;81;21529;-38
2022/12/03 09:04:46;;;;;;;20.65;11.38;;;;;;;0.10;71.06;101023.44;1760942;81;21498;-38
2022/12/03 09:07:12;;;;;;;21.85;11.38;;;;;;;0.13;71.09;101020.29;1760590;81;20955;-38
2022/12/03 09:09:39;;;;;;;21.17;11.68;;;;;;;0.10;70.85;101024.77;1760823;81;20963;-38
2022/12/03 09:12:06;;;;;;;23.65;11.88;;;;;;;0.06;70.92;101022.85;1760794;81;21014;-38
2022/12/03 09:14:32;;;;;;;22.70;11.90;;;;;;;0.04;71.10;101021.79;1760941;81;21493;-38
2022/12/03 09:16:59;;;;;;;22.70;11.80;;;;;;;0.01;71.35;101016.94;1760810;81;22039;-38
2022/12/03 09:19:28;;;;;;;22.67;11.38;;;;;;;0.03;71.25;101024.17;1760660;81;20975;-38
2022/12/03 09:21:55;;;;;;;16.80;9.28;;;;;;;0.05;71.45;101029.27;1760643;81;20954;-38
2022/12/03 09:24:22;;;;;;;22.85;11.85;;;;;;;0.04;71.55;101031.13;1760765;81;20967;-38
2022/12/03 09:26:49;;;;;;;20.23;11.57;;;;;;;0.02;71.82;101031.88;1760583;81;21019;-38
2022/12/03 09:29:15;;;;;;;20.52;11.70;;;;;;;-0.01;72.13;101025.73;1760645;81;21077;-38
2022/12/03 09:31:42;;;;;;;17.40;10.03;;;;;;;0.01;72.18;101028.94;1760616;81;21010;-38
2022/12/03 09:34:10;;;;;;;19.45;10.35;;;;;;;0.02;72.16;101031.88;1760572;81;21053;-38
2022/12/03 09:36:37;;;;;;;25.05;11.75;;;;;;;0.02;72.10;101027.88;1760746;81;21031;-38
2022/12/03 09:39:04;;;;;;;19.45;10.85;;;;;;;0.00;72.22;101031.34;1760608;81;20959;-38
2022/12/03 09:41:30;;;;;;;20.82;11.25;;;;;;;-0.04;72.34;101027.02;1760762;81;21232;-38
2022/12/03 09:43:57;;;;;;;18.30;11.40;;;;;;;-0.01;72.23;101039.88;1760618;81;20955;-38
2022/12/03 09:46:24;;;;;;;19.65;10.93;;;;;;;-0.01;72.33;101032.39;1760737;81;21011;-39
2022/12/03 09:48:51;;;;;;;17.62;11.38;;;;;;;0.05;72.19;101042.05;1760543;81;21329;-38
2022/12/03 09:51:19;;;;;;;22.93;11.60;;;;;;;0.14;71.74;101038.44;1760685;81;20976;-38
2022/12/03 09:53:46;;;;;;;23.30;11.15;;;;;;;0.12;71.20;101040.01;1760877;81;21172;-38
2022/12/03 09:56:21;;;;;;;23.15;11.15;;;;;;;0.13;71.33;101038.95;1760918;81;20963;-39
2022/12/03 09:58:48;;;;;;;24.67;12.53;;;;;;;0.16;71.40;101034.97;1760619;81;21540;-39
2022/12/03 10:01:15;;;;;;;20.52;12.63;;;;;;;0.15;71.55;101038.16;1760985;81;21010;-39
2022/12/03 10:03:48;;;;;;;26.62;14.18;;;;;;;0.13;71.41;101044.30;1760760;81;21014;-38
2022/12/03 10:06:22;;;;;;;28.52;13.05;;;;;;;0.08;71.46;101048.23;1760586;81;21124;-39
2022/12/03 10:08:51;;;;;;;25.43;13.10;;;;;;;0.03;71.69;101040.69;1760528;81;21453;-38
2022/12/03 10:11:19;;;;;;;22.93;12.47;;;;;;;0.04;71.66;101044.45;1760815;81;21003;-39
2022/12/03 10:13:45;;;;;;;23.10;11.57;;;;;;;0.00;71.43;101040.67;1760923;81;21011;-38
2022/12/03 10:16:15;;;;;;;21.70;12.60;;;;;;;-0.02;71.16;101050.25;1760693;81;21055;-38
2022/12/03 10:18:47;;;;;;;28.30;12.35;;;;;;;-0.07;71.25;101042.70;1760805;81;21202;-38
2022/12/03 10:21:21;;;;;;;23.18;11.57;;;;;;;-0.10;71.35;101045.88;1760519;81;20924;-38
2022/12/03 10:23:49;;;;;;;25.80;11.90;;;;;;;-0.15;71.40;101038.62;1760936;81;21086;-39
2022/12/03 10:26:17;;;;;;;23.02;11.97;;;;;;;-0.20;71.18;101039.89;1760762;81;21016;-38
2022/12/03 10:28:46;;;;;;;20.25;11.90;;;;;;;-0.16;71.35;101045.00;1760746;81;21604;-38
2022/12/03 10:31:13;;;;;;;24.43;11.60;;;;;;;-0.14;71.48;101047.41;1735434;81;22136;-38
2022/12/03 10:33:46;;;;;;;22.17;11.68;;;;;;;-0.10;71.70;101045.88;1760454;81;21497;-38
2022/12/03 10:36:24;;;;;;;21.75;11.73;;;;;;;-0.08;71.81;101054.42;1760660;81;21026;-38
2022/12/03 10:39:12;;;;;;;25.37;12.50;;;;;;;-0.06;71.48;101055.80;1760798;81;21003;-38
2022/12/03 10:41:41;;;;;;;20.72;12.10;;;;;;;-0.06;71.78;101057.66;1760744;81;21008;-38
2022/12/03 15:11:29;;;;;;;13.35;9.05;;;;;;;-1.27;77.35;101226.93;1755182;80;22705;-38
2022/12/03 15:13:55;;;;;;;17.12;10.40;;;;;;;-1.13;76.58;101228.27;1748706;81;21580;-38
2022/12/03 15:16:22;;;;;;;15.38;9.55;;;;;;;-1.15;75.83;101233.53;1764773;81;21944;-38
2022/12/03 15:18:49;;;;;;;18.37;9.03;;;;;;;-1.18;75.29;101227.36;1764424;81;21449;-38
2022/12/03 15:21:16;;;;;;;16.05;9.80;;;;;;;-1.17;75.08;101228.98;1764500;81;20929;-38
2022/12/03 15:23:43;;;;;;;15.93;9.85;;;;;;;-1.11;74.62;101238.66;1764515;81;21028;-38
2022/12/03 15:26:09;;;;;;;16.42;9.53;;;;;;;-1.12;74.01;101237.06;1764823;81;21015;-38
2022/12/03 15:28:36;;;;;;;14.98;9.40;;;;;;;-1.11;73.53;101237.33;1764542;81;21163;-38
2022/12/03 15:31:03;;;;;;;20.10;10.82;;;;;;;-1.09;73.14;101233.92;1764509;81;20976;-38
2022/12/03 15:33:29;;;;;;;21.97;12.28;;;;;;;-1.13;73.21;101238.11;1764651;81;20936;-37
2022/12/03 15:35:56;;;;;;;23.77;12.15;;;;;;;-1.15;73.35;101241.52;1764858;81;21062;-39
2022/12/03 15:38:23;;;;;;;19.20;11.57;;;;;;;-1.16;73.59;101247.36;1764706;81;20997;-38
2022/12/03 15:40:49;;;;;;;19.05;13.72;;;;;;;-1.16;73.64;101245.24;1764423;81;23125;-38
2022/12/03 15:43:16;;;;;;;19.20;10.50;;;;;;;-1.19;73.85;101246.50;1764710;81;20988;-38
2022/12/03 15:45:43;;;;;;;16.15;9.83;;;;;;;-1.20;73.81;101251.53;1764706;81;21600;-38
2022/12/03 15:48:09;;;;;;;16.93;10.85;;;;;;;-1.28;73.97;101251.91;1764589;81;21044;-38
2022/12/03 15:50:38;;;;;;;24.55;12.28;;;;;;;-1.28;74.04;101258.56;1764551;81;20992;-38
2022/12/03 15:53:05;;;;;;;17.62;11.10;;;;;;;-1.26;74.24;101257.01;1764525;81;21146;-38
2022/12/03 15:55:32;;;;;;;19.20;11.10;;;;;;;-1.19;74.20;101255.82;1764565;81;21026;-40
2022/12/03 15:57:58;;;;;;;19.62;11.88;;;;;;;-1.13;73.91;101262.87;1766907;81;21005;-40
2022/12/03 16:00:25;;;;;;;24.67;14.00;;;;;;;-1.11;73.57;101253.30;1759361;81;20944;-38
2022/12/03 16:02:52;;;;;;;25.37;17.07;;;;;;;-1.12;73.18;101254.37;1766872;81;20975;-38
2022/12/03 16:05:18;;;;;;;21.73;14.05;;;;;;;-1.14;73.17;101252.45;1759545;81;21258;-38
2022/12/03 16:07:45;;;;;;;18.75;13.55;;;;;;;-1.18;72.98;101248.13;1766920;81;21081;-38
2022/12/03 16:10:12;;;;;;;21.80;11.70;;;;;;;-1.24;73.17;101250.91;1763776;81;20952;-38
2022/12/03 16:12:39;;;;;;;18.25;11.60;;;;;;;-1.23;73.01;101245.88;1751797;81;20981;-38
2022/12/03 16:15:07;;;;;;;18.25;10.98;;;;;;;-1.28;72.92;101247.11;1751855;81;21032;-38
2022/12/03 16:17:34;;;;;;;20.75;12.00;;;;;;;-1.26;72.90;101247.70;1752161;81;21263;-38
2022/12/03 16:20:00;;;;;;;18.02;10.68;;;;;;;-1.23;72.99;101251.20;1751756;81;21067;-38
2022/12/03 16:22:27;;;;;;;14.58;9.98;;;;;;;-1.22;73.10;101250.17;1751978;81;21029;-38
2022/12/03 16:24:53;;;;;;;21.35;10.25;;;;;;;-1.18;72.81;101259.30;1751730;81;21096;-38
2022/12/03 16:27:20;;;;;;;21.25;11.40;;;;;;;-1.21;72.72;101260.55;1752343;81;20967;-38
2022/12/03 16:29:47;;;;;;;18.10;10.70;;;;;;;-1.19;72.52;101261.14;1751727;81;21301;-38
2022/12/03 16:32:13;;;;;;;17.42;9.68;;;;;;;-1.19;72.54;101257.67;1751860;81;21011;-38
2022/12/03 16:34:40;;;;;;;13.58;8.80;;;;;;;-1.16;72.43;101260.66;1751927;81;20968;-38
2022/12/03 16:37:07;;;;;;;20.72;10.48;;;;;;;-1.19;72.28;101265.13;1752001;81;20984;-38
2022/12/03 16:39:34;;;;;;;20.12;11.75;;;;;;;-1.18;72.14;101262.77;1751838;81;20989;-38
2022/12/03 16:42:02;;;;;;;16.05;9.40;;;;;;;-1.15;72.08;101264.95;1751954;81;21088;-38
2022/12/03 16:44:31;;;;;;;15.83;9.45;;;;;;;-1.14;71.92;101266.57;1751874;81;20965;-38
2022/12/03 16:47:00;;;;;;;14.25;9.38;;;;;;;-1.16;71.79;101265.20;1752074;81;21597;-38
2022/12/03 16:49:27;;;;;;;13.72;8.28;;;;;;;-1.19;72.06;101266.47;1752087;81;21486;-38
2022/12/03 16:51:53;;;;;;;15.88;8.73;;;;;;;-1.14;71.93;101266.57;1751987;81;21525;-38
2022/12/03 16:54:20;;;;;;;16.62;8.70;;;;;;;-1.17;71.87;101264.91;1751983;81;22066;-38
2022/12/03 16:56:46;;;;;;;14.23;8.13;;;;;;;-1.15;71.79;101270.78;1751851;81;21013;-38
2022/12/03 16:59:13;;;;;;;15.35;8.43;;;;;;;-1.19;71.77;101271.78;1751684;81;20976;-38
2022/12/03 17:01:39;;;;;;;13.48;7.83;;;;;;;-1.17;71.81;101280.36;1751936;81;21000;-38
2022/12/03 17:04:06;;;;;;;13.98;8.25;;;;;;;-1.18;71.82;101273.41;1751836;81;21052;-38
2022/12/03 17:06:33;;;;;;;13.18;8.13;;;;;;;-1.14;71.84;101269.75;1751867;81;23104;-38
2022/12/03 17:09:00;;;;;;;12.55;8.03;;;;;;;-1.10;71.61;101281.02;1751832;81;20977;-38
2022/12/03 17:11:26;;;;;;;13.15;8.00;;;;;;;-1.07;71.58;101277.09;1763968;81;20905;-38
2022/12/03 17:13:53;;;;;;;13.88;7.75;;;;;;;-1.04;71.33;101276.61;1769070;81;20983;-38
2022/12/03 17:16:20;;;;;;;11.63;7.53;;;;;;;-1.09;71.39;101277.84;1769162;81;20960;-38
2022/12/03 17:18:47;;;;;;;15.48;8.33;;;;;;;-1.04;71.35;101280.60;1769307;81;21243;-38
2022/12/03 17:21:14;;;;;;;13.18;8.35;;;;;;;-0.99;71.11;101284.70;1769128;81;20889;-38
2022/12/03 17:23:41;;;;;;;15.35;8.03;;;;;;;-0.97;70.81;101284.73;1768909;81;21557;-38
2022/12/03 17:26:07;;;;;;;14.83;8.68;;;;;;;-0.96;70.60;101286.88;1769261;81;21580;-38
2022/12/03 17:28:34;;;;;;;14.85;8.43;;;;;;;-1.04;70.54;101283.27;1769026;81;21044;-38
2022/12/03 17:31:01;;;;;;;14.53;8.78;;;;;;;-1.05;70.14;101289.62;1769115;81;21250;-38
2022/12/03 17:33:28;;;;;;;14.70;8.98;;;;;;;-1.10;70.23;101288.19;1769070;81;21023;-38
2022/12/03 17:35:54;;;;;;;15.75;8.73;;;;;;;-1.09;70.41;101296.47;1769239;81;21474;-38
2022/12/03 17:38:21;;;;;;;17.35;9.45;;;;;;;-1.09;70.17;101292.48;1768960;81;21642;-38
2022/12/03 17:40:47;;;;;;;15.32;9.73;;;;;;;-1.12;70.21;101295.10;1769223;81;21016;-38
2022/12/03 17:43:14;;;;;;;18.30;10.48;;;;;;;-1.10;69.99;101296.17;1769447;81;21186;-38
2022/12/03 17:45:42;;;;;;;14.85;9.58;;;;;;;-1.10;70.03;101307.63;1768966;81;20967;-38
2022/12/03 17:48:09;;;;;;;17.30;9.78;;;;;;;-1.05;70.01;101308.26;1769111;81;21580;-38
2022/12/03 17:50:35;;;;;;;17.32;9.68;;;;;;;-1.03;69.72;101304.85;1768953;81;21549;-38
2022/12/03 17:53:04;;;;;;;16.73;10.38;;;;;;;-1.02;69.65;101309.95;1769099;81;21509;-38
2022/12/03 17:55:31;;;;;;;19.25;11.45;;;;;;;-1.00;69.59;101313.69;1769130;81;21206;-38
2022/12/03 17:57:57;;;;;;;23.12;12.25;;;;;;;-1.02;69.66;101313.12;1768987;81;20920;-38
2022/12/03 18:00:24;;;;;;;20.70;11.43;;;;;;;-1.03;69.30;101312.32;1768980;81;21533;-38
2022/12/03 18:02:51;;;;;;;21.37;11.33;;;;;;;-1.06;69.50;101315.43;1769019;81;21348;-38
2022/12/03 18:05:19;;;;;;;18.15;9.93;;;;;;;-1.02;69.50;101321.93;1769064;81;21024;-38
2022/12/03 18:07:46;;;;;;;19.27;8.68;;;;;;;-1.03;69.28;101328.29;1769429;81;21134;-38
2022/12/03 18:10:13;;;;;;;14.15;9.30;;;;;;;-1.02;69.16;101329.10;1768116;81;21019;-38
2022/12/03 18:12:40;;;;;;;16.02;9.15;;;;;;;-1.00;69.05;101321.16;1751940;81;21575;-38
2022/12/03 18:15:09;;;;;;;17.07;9.50;;;;;;;-1.01;68.82;101327.52;1751730;81;21460;-38
